Sunday, November 19, 2017, 10:39 AM GMT
Back to Local

CYSJ, Saint John, N. B.

Location: , , Canada Lat: 45.333
Local Time: 10:39 AM GMT (10:39 GMT) Lon: -65.883
Time Zone: GMT Elev: 337 ft

Show me the last for .
Show Decoded

2017-11-19 10:00 METAR CYSJ 191000Z 14014G28KT 100V170 3SM -RA BR SCT005 OVC011 07/06 A2949 RMK
                 SF4SC4 SLP991 =
2017-11-19 09:00 METAR CYSJ 190900Z 12010G16KT 3SM -RA BR SCT008 OVC022 06/05 A2954 RMK SF4SC4
                 SLP009 =
2017-11-19 08:00 METAR CYSJ 190800Z 12012KT 15SM -RA OVC028 05/04 A2958 RMK SC8 PRESFR SLP022 =
2017-11-19 07:19 METAR CYSJ 190719Z 13012KT 15SM -RA OVC032 05/04 A2961 RMK SC8 PRESFR SLP033 =
2017-11-19 07:00 METAR CYSJ 190700Z 13006KT 110V180 15SM SCT022 OVC056 05/03 A2963 RMK SC4SC4
                 PRESFR SLP041 =
2017-11-19 06:00 METAR CYSJ 190600Z 14009KT 15SM FEW022 OVC083 04/02 A2967 RMK SC2AC6 SLP053 =
2017-11-19 05:00 METAR CYSJ 190500Z 00000KT 15SM FEW008 OVC079 02/M01 A2968 RMK SF2AC6 SLP057 =
2017-11-19 04:00 METAR CYSJ 190400Z 00000KT 15SM FEW008 OVC100 00/M02 A2972 RMK SF2AC6 SLP072 =
2017-11-19 03:08 METAR CYSJ 190308Z 04002KT 15SM FEW008 BKN090 M00/M03 A2974 RMK SF2AC5 SLP078 =
2017-11-19 03:00 METAR CYSJ 190300Z 05003KT 15SM BKN090 M01/M03 A2975 RMK AC7 SLP080 =
2017-11-19 02:00 METAR CYSJ 190200Z 08002KT 15SM BKN090 M01/M03 A2976 RMK AC7 SLP086 =
2017-11-19 01:00 METAR CYSJ 190100Z 00000KT 15SM BKN090 00/M04 A2976 RMK AC7 SLP086 =
2017-11-19 00:00 METAR CYSJ 190000Z 07002KT 15SM BKN090 M00/M04 A2977 RMK AC7 SLP088 =
2017-11-18 23:00 METAR CYSJ 182300Z VRB02KT 15SM BKN140 OVC300 M00/M04 A2977 RMK AC6CI2 SLP088 =
2017-11-18 22:00 METAR CYSJ 182200Z 00000KT 15SM FEW140 BKN170 OVC300 M01/M04 A2978 RMK AC2AC4CI2
                 SLP091 =
2017-11-18 21:00 METAR CYSJ 182100Z VRB02KT 15SM FEW140 BKN170 OVC300 M00/M05 A2979 RMK AC2AC3CS3
                 SLP096 =
2017-11-18 20:00 METAR CYSJ 182000Z 29004KT 15SM BKN140 BKN300 01/M06 A2978 RMK AC5CS2 SLP093 =
2017-11-18 19:00 METAR CYSJ 181900Z 30004KT 15SM FEW019 SCT130 BKN300 02/M06 A2978 RMK SC1AC3CI2
                 SLP090 =
2017-11-18 18:00 METAR CYSJ 181800Z 35006KT 15SM FEW019 FEW100 SCT300 02/M06 A2977 RMK SC1AC1CI1
                 SLP087 =
2017-11-18 17:00 METAR CYSJ 181700Z 32009KT 300V360 15SM FEW019 FEW100 SCT300 01/M06 A2977 RMK
                 SC1AC1CI1 SLP089 =
2017-11-18 16:00 METAR CYSJ 181600Z 35012G18KT 15SM FEW019 FEW100 SCT300 00/M06 A2980 RMK
                 SC1AC1CI2 SLP098 =
2017-11-18 15:00 METAR CYSJ 181500Z 33013KT 15SM FEW019 SCT300 M01/M07 A2981 RMK SC1CI3 SLP101 =
2017-11-18 14:00 METAR CYSJ 181400Z 33008G16KT 15SM FEW019 SCT300 M02/M07 A2980 RMK SC1CI2 SLP098
                 =
2017-11-18 13:00 METAR CYSJ 181300Z 32013G19KT 15SM FEW019 FEW300 M03/M08 A2980 RMK SC1CI1 SLP100
                 =
2017-11-18 12:00 METAR CYSJ 181200Z 31008G16KT 15SM BKN019 BKN300 M04/M08 A2980 RMK SC5CI1 SLP100
                 =
2017-11-18 11:00 METAR CYSJ 181100Z 30012G18KT 15SM OVC020 M03/M08 A2979 RMK SC8 SLP096 =

Support USWX by starting your Amazon purchase here.